createdAt,value
2024-02-24T00:00:20.525Z,14.00
2024-02-24T00:03:09.041Z,13.20
2024-02-24T00:05:37.727Z,14.60
2024-02-24T00:08:07.013Z,16.20
2024-02-24T00:10:35.491Z,16.50
2024-02-24T00:13:05.131Z,13.00
2024-02-24T00:15:33.576Z,13.10
2024-02-24T00:18:02.146Z,14.40
2024-02-24T00:20:30.704Z,14.80
2024-02-24T00:22:59.692Z,13.20
2024-02-24T00:25:28.242Z,14.30
2024-02-24T00:27:56.963Z,15.70
2024-02-24T00:30:25.429Z,15.50
2024-02-24T00:32:54.226Z,17.70
2024-02-24T00:35:23.713Z,14.50
2024-02-24T00:37:52.175Z,13.10
2024-02-24T00:40:20.658Z,17.80
2024-02-24T00:42:49.256Z,18.10
2024-02-24T00:45:17.772Z,14.30
2024-02-24T00:47:46.393Z,15.20
2024-02-24T00:50:15.455Z,16.90
2024-02-24T00:52:44.375Z,17.40
2024-02-24T00:55:12.860Z,15.00
2024-02-24T00:57:41.391Z,15.20
2024-02-24T01:00:11.028Z,16.20
2024-02-24T01:02:39.506Z,15.40
2024-02-24T01:05:11.391Z,15.90
2024-02-24T01:07:39.814Z,16.10
2024-02-24T01:10:09.922Z,16.20
2024-02-24T01:12:38.394Z,17.70
2024-02-24T01:15:07.434Z,14.60
2024-02-24T01:17:36.006Z,14.10
2024-02-24T01:20:04.933Z,14.50
2024-02-24T01:22:33.426Z,13.40
2024-02-24T01:25:02.004Z,12.50
2024-02-24T01:27:30.438Z,13.00
2024-02-24T01:29:58.916Z,13.60
2024-02-24T01:32:27.572Z,18.00
2024-02-24T01:34:56.181Z,16.50
2024-02-24T01:37:25.191Z,15.90
2024-02-24T01:39:53.654Z,16.90
2024-02-24T01:42:22.153Z,15.10
2024-02-24T01:44:50.717Z,19.10
2024-02-24T01:47:19.908Z,23.10
2024-02-24T01:49:48.676Z,16.00
2024-02-24T01:52:17.918Z,18.00
2024-02-24T01:54:46.919Z,14.90
2024-02-24T01:57:15.572Z,17.00
2024-02-24T01:59:44.185Z,13.40
2024-02-24T02:02:12.763Z,14.70
2024-02-24T02:04:41.312Z,15.00
2024-02-24T02:07:09.958Z,17.40
2024-02-24T02:09:57.655Z,16.40
2024-02-24T02:12:27.082Z,15.20
2024-02-24T02:14:57.097Z,15.00
2024-02-24T02:17:25.806Z,13.90
2024-02-24T02:19:54.346Z,14.50
2024-02-24T02:22:25.946Z,14.60
2024-02-24T02:24:54.530Z,13.60
2024-02-24T02:27:23.168Z,12.10
2024-02-24T02:29:51.722Z,10.50
2024-02-24T02:32:20.246Z,13.80
2024-02-24T02:34:48.718Z,13.50
2024-02-24T02:37:17.203Z,10.40
2024-02-24T02:39:45.720Z,10.20
2024-02-24T02:42:14.247Z,12.60
2024-02-24T02:44:42.733Z,12.00
2024-02-24T02:47:19.561Z,11.00
2024-02-24T02:49:51.974Z,9.10
2024-02-24T02:52:20.480Z,8.30
2024-02-24T02:54:48.956Z,12.70
2024-02-24T02:57:20.630Z,12.20
2024-02-24T02:59:49.219Z,12.70
2024-02-24T03:02:18.007Z,17.40
2024-02-24T03:04:46.495Z,14.20
2024-02-24T03:07:15.054Z,12.60
2024-02-24T03:09:51.053Z,13.50
2024-02-24T03:12:19.727Z,10.60
2024-02-24T03:14:48.400Z,8.80
2024-02-24T03:17:16.925Z,8.60
2024-02-24T03:19:45.392Z,9.50
2024-02-24T03:22:13.821Z,9.70
2024-02-24T03:24:43.535Z,7.30
2024-02-24T03:27:15.138Z,10.40
2024-02-24T03:29:43.616Z,8.30
2024-02-24T03:32:12.263Z,9.10
2024-02-24T03:34:40.837Z,9.70
2024-02-24T03:37:09.310Z,8.30
2024-02-24T03:39:38.862Z,7.40
2024-02-24T03:42:07.322Z,8.30
2024-02-24T03:44:35.858Z,6.60
2024-02-24T03:47:04.478Z,6.50
2024-02-24T03:49:32.972Z,8.10
2024-02-24T03:52:01.400Z,6.10
2024-02-24T03:54:29.849Z,6.70
2024-02-24T03:56:58.359Z,6.90
2024-02-24T03:59:27.155Z,6.50
2024-02-24T04:01:55.577Z,7.00
2024-02-24T04:04:24.075Z,7.80
2024-02-24T04:06:52.753Z,9.50
2024-02-24T04:09:21.400Z,7.90
2024-02-24T04:11:52.301Z,9.50
2024-02-24T04:14:20.949Z,12.10
2024-02-24T04:16:49.591Z,7.70
2024-02-24T04:19:18.069Z,6.90
2024-02-24T04:21:46.612Z,8.70
2024-02-24T04:24:15.052Z,7.90
2024-02-24T04:26:43.673Z,6.70
2024-02-24T04:29:12.130Z,7.60
2024-02-24T04:31:40.581Z,7.50
2024-02-24T04:34:09.270Z,8.80
2024-02-24T04:36:44.367Z,7.20
2024-02-24T04:39:12.996Z,9.00
2024-02-24T04:41:41.637Z,10.70
2024-02-24T04:44:10.191Z,8.00
2024-02-24T04:46:39.865Z,8.30
2024-02-24T04:49:10.156Z,6.30
2024-02-24T04:51:39.796Z,6.10
2024-02-24T04:54:08.296Z,7.00
2024-02-24T04:56:36.780Z,6.20
2024-02-24T04:59:05.324Z,6.10
2024-02-24T05:01:33.885Z,7.30
2024-02-24T05:04:02.573Z,7.10
2024-02-24T05:06:31.150Z,8.20
2024-02-24T05:08:59.849Z,7.50
2024-02-24T05:11:28.758Z,8.30
2024-02-24T05:13:57.403Z,8.10
2024-02-24T05:16:26.213Z,9.50
2024-02-24T05:18:54.707Z,8.40
2024-02-24T05:21:23.539Z,9.60
2024-02-24T05:23:52.229Z,9.40
2024-02-24T05:26:28.356Z,7.80
2024-02-24T05:28:57.703Z,8.60
2024-02-24T05:31:26.189Z,9.10
2024-02-24T05:33:56.325Z,10.80
2024-02-24T05:36:25.744Z,10.30
2024-02-24T05:38:54.243Z,11.50
2024-02-24T05:41:22.832Z,11.20
2024-02-24T05:43:51.373Z,10.80
2024-02-24T05:46:19.938Z,10.30
2024-02-24T05:48:48.509Z,10.00
2024-02-24T05:51:20.515Z,12.20
2024-02-24T05:53:50.100Z,12.90
2024-02-24T05:56:19.018Z,12.00
2024-02-24T05:58:47.545Z,8.20
2024-02-24T06:01:16.167Z,10.00
2024-02-24T06:03:44.796Z,9.50
2024-02-24T06:06:13.502Z,7.70
2024-02-24T06:08:42.040Z,9.50
2024-02-24T06:11:12.671Z,15.60
2024-02-24T06:13:41.207Z,12.80
2024-02-24T06:16:12.012Z,10.60
2024-02-24T06:18:40.704Z,7.30
2024-02-24T06:21:10.335Z,12.60
2024-02-24T06:23:38.952Z,11.80
2024-02-24T06:26:07.601Z,12.50
2024-02-24T06:28:36.812Z,17.40
2024-02-24T06:31:05.750Z,14.90
2024-02-24T06:33:34.408Z,13.40
2024-02-24T06:36:06.566Z,10.30
2024-02-24T06:38:35.039Z,18.10
2024-02-24T06:41:04.543Z,12.00
2024-02-24T06:43:33.061Z,10.60
2024-02-24T06:46:01.592Z,11.50
2024-02-24T06:48:30.240Z,13.20
2024-02-24T06:50:58.967Z,12.30
2024-02-24T06:53:27.406Z,14.80
2024-02-24T06:55:58.259Z,12.50
2024-02-24T06:58:26.757Z,12.10
2024-02-24T07:00:55.323Z,14.00
2024-02-24T07:03:24.402Z,11.60
2024-02-24T07:05:53.062Z,11.50
2024-02-24T07:08:21.696Z,14.80
2024-02-24T07:10:50.974Z,13.00
2024-02-24T07:13:19.481Z,18.40
2024-02-24T07:15:47.926Z,15.30
2024-02-24T07:18:16.524Z,13.10
2024-02-24T07:20:46.217Z,13.50
2024-02-24T07:23:14.808Z,14.20
2024-02-24T07:25:43.270Z,17.00
2024-02-24T07:28:11.809Z,16.00
2024-02-24T07:30:40.704Z,15.50
2024-02-24T07:33:09.557Z,17.70
2024-02-24T07:35:38.205Z,14.40
2024-02-24T07:38:06.731Z,17.70
2024-02-24T07:40:35.841Z,16.10
2024-02-24T07:43:04.552Z,16.10
2024-02-24T07:45:33.012Z,16.60
2024-02-24T07:48:02.059Z,15.20
2024-02-24T07:50:30.689Z,16.50
2024-02-24T07:52:59.238Z,16.10
2024-02-24T07:55:27.791Z,13.20
2024-02-24T07:57:56.267Z,13.80
2024-02-24T08:00:26.334Z,16.70
2024-02-24T08:02:54.905Z,13.40
2024-02-24T08:05:23.532Z,16.40
2024-02-24T08:07:52.048Z,17.90
2024-02-24T08:10:20.602Z,18.40
2024-02-24T08:12:49.143Z,20.30
2024-02-24T08:15:17.549Z,14.70
2024-02-24T08:17:46.217Z,18.60
2024-02-24T08:20:15.025Z,18.50
2024-02-24T08:22:45.031Z,16.00
2024-02-24T08:25:13.529Z,17.00
2024-02-24T08:27:42.139Z,14.40
2024-02-24T08:30:11.255Z,16.00
2024-02-24T08:32:39.734Z,14.60
2024-02-24T08:35:09.473Z,16.30
2024-02-24T08:37:38.607Z,17.90
2024-02-24T08:40:10.505Z,19.80
2024-02-24T08:42:39.537Z,16.90
2024-02-24T08:45:08.220Z,16.60
2024-02-24T08:47:36.753Z,20.00
2024-02-24T08:50:06.359Z,21.50
2024-02-24T08:52:43.086Z,17.80
2024-02-24T08:55:18.478Z,17.80
2024-02-24T08:57:47.211Z,16.40
2024-02-24T09:00:16.198Z,20.90
2024-02-24T09:02:44.712Z,10.70
2024-02-24T09:05:13.605Z,14.40
2024-02-24T09:07:42.316Z,12.00
2024-02-24T09:10:13.883Z,12.10
2024-02-24T09:12:44.690Z,11.40
2024-02-24T09:15:13.206Z,11.70
2024-02-24T09:17:42.267Z,11.90
2024-02-24T09:20:12.250Z,13.20
2024-02-24T09:22:45.612Z,13.90
2024-02-24T09:25:18.224Z,12.10
2024-02-24T09:27:47.443Z,12.50
2024-02-24T09:30:15.972Z,13.00
2024-02-24T09:32:44.552Z,14.20
2024-02-24T09:35:13.219Z,12.80
2024-02-24T09:37:41.835Z,14.50
2024-02-24T09:40:10.611Z,17.10
2024-02-24T09:42:39.993Z,14.20
2024-02-24T09:45:17.554Z,12.40
2024-02-24T09:47:46.361Z,12.60
2024-02-24T09:50:15.990Z,13.50
2024-02-24T09:52:44.877Z,13.60
2024-02-24T09:55:13.594Z,13.50
2024-02-24T09:57:43.198Z,13.10
2024-02-24T10:00:12.445Z,17.30
2024-02-24T10:02:43.274Z,10.90
2024-02-24T10:05:11.882Z,11.90
2024-02-24T10:07:41.048Z,12.30
2024-02-24T10:10:12.095Z,11.50
2024-02-24T10:12:41.054Z,12.70
2024-02-24T10:15:10.073Z,16.00
2024-02-24T10:17:39.467Z,10.70
2024-02-24T10:20:09.684Z,12.70
2024-02-24T10:22:40.351Z,12.90
2024-02-24T10:25:08.996Z,14.00
2024-02-24T10:27:37.790Z,13.30
2024-02-24T10:30:09.370Z,14.00
2024-02-24T10:32:39.793Z,14.10
2024-02-24T10:35:09.895Z,16.60
2024-02-24T10:37:52.024Z,15.90
2024-02-24T10:40:27.292Z,13.40
2024-02-24T10:42:57.320Z,13.20
2024-02-24T10:45:28.501Z,12.00
2024-02-24T10:47:59.322Z,12.70
2024-02-24T10:50:30.840Z,13.10
2024-02-24T10:53:02.391Z,13.10
2024-02-24T10:55:32.736Z,11.60
2024-02-24T10:58:01.678Z,16.70
2024-02-24T11:00:36.122Z,12.60
2024-02-24T11:03:13.421Z,16.00
2024-02-24T11:05:47.371Z,15.00
2024-02-24T11:08:37.706Z,15.80
2024-02-24T11:11:10.101Z,13.50
2024-02-24T11:13:55.641Z,14.10
2024-02-24T11:16:37.543Z,15.40
2024-02-24T11:19:13.348Z,20.20
2024-02-24T11:22:02.968Z,18.90
2024-02-24T11:24:35.713Z,16.10
2024-02-24T11:27:06.296Z,13.10
2024-02-24T11:29:37.556Z,17.90
2024-02-24T11:32:14.990Z,15.90
2024-02-24T11:34:45.914Z,20.10
2024-02-24T11:37:19.343Z,17.50
2024-02-24T11:39:50.662Z,18.50
2024-02-24T11:42:21.813Z,16.00
2024-02-24T11:44:53.573Z,16.70
2024-02-24T11:47:25.320Z,17.50
2024-02-24T11:49:53.940Z,16.10
2024-02-24T11:52:26.030Z,18.20
2024-02-24T11:54:55.080Z,16.80
2024-02-24T11:57:24.941Z,15.10
2024-02-24T11:59:54.005Z,19.70
2024-02-24T12:02:22.764Z,14.50
2024-02-24T12:04:51.469Z,13.50
2024-02-24T12:07:20.092Z,15.70
2024-02-24T12:09:51.555Z,15.20
2024-02-24T12:12:21.462Z,12.60
2024-02-24T12:18:17.493Z,16.50
2024-02-24T12:20:50.008Z,18.40
2024-02-24T12:23:18.971Z,14.80
2024-02-24T12:25:47.671Z,15.60
2024-02-24T12:28:20.154Z,17.10
2024-02-24T12:30:48.685Z,15.50
2024-02-24T12:33:18.802Z,17.20
2024-02-24T12:35:49.572Z,18.80
2024-02-24T12:38:19.233Z,17.90
2024-02-24T12:40:50.956Z,16.50
2024-02-24T12:43:19.391Z,22.20
2024-02-24T12:45:52.997Z,21.10
2024-02-24T12:48:21.846Z,22.40
2024-02-24T12:50:51.061Z,16.30
2024-02-24T12:53:20.936Z,15.70
2024-02-24T12:55:52.711Z,14.30
2024-02-24T12:58:22.314Z,15.40
2024-02-24T13:00:54.281Z,13.50
2024-02-24T13:03:23.478Z,17.10
2024-02-24T13:05:57.516Z,14.80
2024-02-24T13:08:27.066Z,15.60
2024-02-24T13:10:59.333Z,14.80
2024-02-24T13:13:28.459Z,16.00
2024-02-24T13:15:56.977Z,19.60
2024-02-24T13:18:25.594Z,16.70
2024-02-24T13:20:56.902Z,14.50
2024-02-24T13:23:25.400Z,16.70
2024-02-24T13:25:53.864Z,14.20
2024-02-24T13:28:22.329Z,15.80
2024-02-24T13:30:50.887Z,16.90
2024-02-24T13:33:21.978Z,14.30
2024-02-24T13:35:50.734Z,15.60
2024-02-24T13:38:20.485Z,15.00
2024-02-24T13:40:49.372Z,16.20
2024-02-24T13:43:18.627Z,15.90
2024-02-24T13:45:47.394Z,15.10
2024-02-24T13:48:16.050Z,18.50
2024-02-24T13:50:44.739Z,23.20
2024-02-24T13:53:13.510Z,28.40
2024-02-24T13:55:41.983Z,30.40
2024-02-24T13:58:12.660Z,35.80
2024-02-24T14:00:41.229Z,34.30
2024-02-24T14:03:11.867Z,34.00
2024-02-24T14:05:41.506Z,32.10
2024-02-24T14:08:13.169Z,29.50
2024-02-24T14:10:43.890Z,28.90
2024-02-24T14:13:14.050Z,27.60
2024-02-24T14:15:48.264Z,25.90
2024-02-24T14:18:16.879Z,20.90
2024-02-24T14:20:45.442Z,18.90
2024-02-24T14:23:13.924Z,19.00
2024-02-24T14:25:42.532Z,21.00
2024-02-24T14:28:14.314Z,18.90
2024-02-24T14:30:46.601Z,17.80
2024-02-24T14:35:46.815Z,16.30
2024-02-24T14:38:16.855Z,15.90
2024-02-24T14:40:50.402Z,18.60
2024-02-24T14:43:19.796Z,22.40
2024-02-24T14:45:48.291Z,18.00
2024-02-24T14:48:19.858Z,20.70
2024-02-24T14:50:52.512Z,18.30
2024-02-24T14:53:21.119Z,15.80
2024-02-24T14:55:49.578Z,18.80
2024-02-24T14:58:18.256Z,17.70
2024-02-24T15:00:46.784Z,20.20
2024-02-24T15:03:15.411Z,18.20
2024-02-24T15:05:44.457Z,19.90
2024-02-24T15:08:13.155Z,22.40
2024-02-24T15:10:41.546Z,22.20
2024-02-24T15:13:10.397Z,22.00
2024-02-24T15:15:40.232Z,21.30
2024-02-24T15:18:11.212Z,24.30
2024-02-24T15:20:40.548Z,20.80
2024-02-24T15:23:08.964Z,24.20
2024-02-24T15:25:37.601Z,23.50
2024-02-24T15:28:09.634Z,27.50
2024-02-24T15:30:38.702Z,23.20
2024-02-24T15:33:11.894Z,27.20
2024-02-24T15:35:41.727Z,19.30
2024-02-24T15:38:10.293Z,18.70
2024-02-24T15:40:42.062Z,22.90
2024-02-24T15:43:14.034Z,19.30
2024-02-24T15:45:42.789Z,22.90
2024-02-24T15:48:11.944Z,21.80
2024-02-24T15:50:40.596Z,22.90
2024-02-24T15:53:09.684Z,22.60
2024-02-24T15:55:38.196Z,21.80
2024-02-24T15:58:06.791Z,23.00
2024-02-24T16:00:39.321Z,25.00
2024-02-24T16:03:12.027Z,21.40
2024-02-24T16:05:41.257Z,29.80
2024-02-24T16:08:12.545Z,27.90
2024-02-24T16:10:43.996Z,29.20
2024-02-24T16:13:14.860Z,29.00
2024-02-24T16:15:45.976Z,33.70
2024-02-24T16:18:18.113Z,32.00
2024-02-24T16:20:47.114Z,36.80
2024-02-24T16:23:17.350Z,38.80
2024-02-24T16:25:46.345Z,41.30
2024-02-24T16:28:14.908Z,42.60
2024-02-24T16:30:43.408Z,43.30
2024-02-24T16:33:12.016Z,52.20
2024-02-24T16:35:40.880Z,45.00
2024-02-24T16:38:14.302Z,54.00
2024-02-24T16:40:43.143Z,43.90
2024-02-24T16:43:13.226Z,45.20
2024-02-24T16:45:41.851Z,44.90
2024-02-24T16:48:10.886Z,41.00
2024-02-24T16:50:42.655Z,40.80
2024-02-24T16:53:11.146Z,40.50
2024-02-24T16:55:39.776Z,41.80
2024-02-24T16:58:08.359Z,38.20
2024-02-24T17:00:37.030Z,42.80
2024-02-24T17:03:12.867Z,89.70
2024-02-24T17:05:42.714Z,109.90
2024-02-24T17:08:13.519Z,84.90
2024-02-24T17:10:42.293Z,60.80
2024-02-24T17:13:12.769Z,37.20
2024-02-24T17:15:41.366Z,34.40
2024-02-24T17:18:17.566Z,48.90
2024-02-24T17:20:47.284Z,36.40
2024-02-24T17:23:16.018Z,32.20
2024-02-24T17:25:44.642Z,37.30
2024-02-24T17:28:13.519Z,32.00
2024-02-24T17:30:42.106Z,34.20
2024-02-24T17:33:12.763Z,33.00
2024-02-24T17:35:44.311Z,29.30
2024-02-24T17:38:13.212Z,30.40
2024-02-24T17:40:41.693Z,32.60
2024-02-24T17:43:10.198Z,32.20
2024-02-24T17:45:38.771Z,28.80
2024-02-24T17:48:11.318Z,29.50
2024-02-24T17:50:39.993Z,30.50
2024-02-24T17:53:11.325Z,29.40
2024-02-24T17:55:39.918Z,30.90
2024-02-24T17:58:08.666Z,30.40
2024-02-24T18:00:37.249Z,34.50
2024-02-24T18:03:06.852Z,32.30
2024-02-24T18:05:35.791Z,35.30
2024-02-24T18:08:04.924Z,37.30
2024-02-24T18:10:33.588Z,54.60
2024-02-24T18:13:02.430Z,37.00
2024-02-24T18:15:31.404Z,40.10
2024-02-24T18:18:00.291Z,38.20
2024-02-24T18:20:29.089Z,38.20
2024-02-24T18:23:00.552Z,41.60
2024-02-24T18:25:31.486Z,41.40
2024-02-24T18:28:05.048Z,40.40
2024-02-24T18:30:35.753Z,40.70
2024-02-24T18:33:04.727Z,45.00
2024-02-24T18:35:34.134Z,40.90
2024-02-24T18:38:02.754Z,39.60
2024-02-24T18:40:34.434Z,45.80
2024-02-24T18:43:02.986Z,42.60
2024-02-24T18:45:31.720Z,46.30
2024-02-24T18:48:00.403Z,44.90
2024-02-24T18:50:29.023Z,43.30
2024-02-24T18:52:57.575Z,43.30
2024-02-24T18:55:31.198Z,43.80
2024-02-24T18:58:00.407Z,42.90
2024-02-24T19:00:29.351Z,44.90
2024-02-24T19:02:57.933Z,43.00
2024-02-24T19:05:26.862Z,42.80
2024-02-24T19:07:55.591Z,42.80
2024-02-24T19:10:24.104Z,44.20
2024-02-24T19:12:53.191Z,46.00
2024-02-24T19:15:22.699Z,44.20
2024-02-24T19:17:51.695Z,42.80
2024-02-24T19:20:22.609Z,44.50
2024-02-24T19:22:51.908Z,43.40
2024-02-24T19:25:22.043Z,43.60
2024-02-24T19:27:51.586Z,43.70
2024-02-24T19:30:20.203Z,43.00
2024-02-24T19:32:49.104Z,49.70
2024-02-24T19:35:20.718Z,50.30
2024-02-24T19:37:49.731Z,44.80
2024-02-24T19:40:20.716Z,44.10
2024-02-24T19:42:49.400Z,48.40
2024-02-24T19:45:19.548Z,46.30
2024-02-24T19:47:48.256Z,49.40
2024-02-24T19:50:18.051Z,49.90
2024-02-24T19:52:46.770Z,49.10
2024-02-24T19:55:17.414Z,51.20
2024-02-24T19:57:46.853Z,51.40
2024-02-24T20:00:16.182Z,49.50
2024-02-24T20:02:44.895Z,47.60
2024-02-24T20:05:14.631Z,48.30
2024-02-24T20:07:46.418Z,47.10
2024-02-24T20:10:15.678Z,44.10
2024-02-24T20:12:44.223Z,42.60
2024-02-24T20:15:13.153Z,44.30
2024-02-24T20:17:41.787Z,51.40
2024-02-24T20:20:11.061Z,50.30
2024-02-24T20:22:39.762Z,46.70
2024-02-24T20:25:08.658Z,46.80
2024-02-24T20:27:37.238Z,50.40
2024-02-24T20:30:06.527Z,46.20
2024-02-24T20:32:35.104Z,46.80
2024-02-24T20:35:06.363Z,43.30
2024-02-24T20:37:34.838Z,42.90
2024-02-24T20:40:05.007Z,41.70
2024-02-24T20:42:33.543Z,43.70
2024-02-24T20:45:02.396Z,42.40
2024-02-24T20:47:31.130Z,45.70
2024-02-24T20:49:59.699Z,43.10
2024-02-24T20:52:28.244Z,44.50
2024-02-24T20:54:56.833Z,41.00
2024-02-24T20:57:32.375Z,42.00
2024-02-24T21:00:05.787Z,39.40
2024-02-24T21:02:34.516Z,38.60
2024-02-24T21:05:04.597Z,37.40
2024-02-24T21:07:33.162Z,40.10
2024-02-24T21:10:01.717Z,41.10
2024-02-24T21:12:30.313Z,39.50
2024-02-24T21:14:59.217Z,39.60
2024-02-24T21:17:28.648Z,41.00
2024-02-24T21:20:04.757Z,41.10
2024-02-24T21:22:33.721Z,43.90
2024-02-24T21:25:06.765Z,40.90
2024-02-24T21:27:35.901Z,41.60
2024-02-24T21:30:04.884Z,41.60
2024-02-24T21:32:33.680Z,44.70
2024-02-24T21:35:04.031Z,45.20
2024-02-24T21:37:34.308Z,43.70
2024-02-24T21:40:04.597Z,44.80
2024-02-24T21:42:33.736Z,41.20
2024-02-24T21:45:03.898Z,40.70
2024-02-24T21:47:33.098Z,40.40
2024-02-24T21:50:01.761Z,40.60
2024-02-24T21:52:30.593Z,41.90
2024-02-24T21:55:02.374Z,42.10
2024-02-24T21:57:33.461Z,44.00
2024-02-24T22:00:02.291Z,44.70
2024-02-24T22:02:30.924Z,42.80
2024-02-24T22:04:59.992Z,43.30
2024-02-24T22:07:33.967Z,46.00
2024-02-24T22:10:05.619Z,41.10
2024-02-24T22:12:34.219Z,43.30
2024-02-24T22:15:03.334Z,43.10
2024-02-24T22:17:32.415Z,44.50
2024-02-24T22:20:01.136Z,41.10
2024-02-24T22:22:30.086Z,44.90
2024-02-24T22:24:58.722Z,44.70
2024-02-24T22:27:29.261Z,44.80
2024-02-24T22:30:08.420Z,44.10
2024-02-24T22:32:45.171Z,44.40
2024-02-24T22:35:14.112Z,46.80
2024-02-24T22:37:42.772Z,46.00
2024-02-24T22:40:11.823Z,47.10
2024-02-24T22:42:40.515Z,46.50
2024-02-24T22:45:10.280Z,47.80
2024-02-24T22:47:42.677Z,50.30
2024-02-24T22:50:12.747Z,52.60
2024-02-24T22:52:44.378Z,52.30
2024-02-24T22:55:15.497Z,52.80
2024-02-24T22:57:44.142Z,58.00
2024-02-24T23:00:15.025Z,54.60
2024-02-24T23:02:46.067Z,58.40
2024-02-24T23:05:14.693Z,57.20
2024-02-24T23:07:45.453Z,57.40
2024-02-24T23:10:22.996Z,59.00
2024-02-24T23:12:51.515Z,55.90
2024-02-24T23:15:20.120Z,53.60
2024-02-24T23:17:51.096Z,59.40
2024-02-24T23:20:19.736Z,52.10
2024-02-24T23:22:48.255Z,53.40
2024-02-24T23:25:21.805Z,57.80
2024-02-24T23:27:50.342Z,57.70
2024-02-24T23:30:19.056Z,57.80
2024-02-24T23:32:48.919Z,58.00
2024-02-24T23:35:17.732Z,61.40
2024-02-24T23:37:47.155Z,60.30
2024-02-24T23:40:15.774Z,62.20
2024-02-24T23:42:44.271Z,59.00
2024-02-24T23:45:12.920Z,63.40
2024-02-24T23:47:42.866Z,61.40
2024-02-24T23:50:11.620Z,61.20
2024-02-24T23:52:42.700Z,61.80
2024-02-24T23:55:11.850Z,62.70
2024-02-24T23:57:40.386Z,59.10
